createdAt,value
2023-02-14T00:00:57.695Z,101368.69
2023-02-14T00:03:24.700Z,101366.41
2023-02-14T00:05:52.291Z,101365.31
2023-02-14T00:08:20.831Z,101359.97
2023-02-14T00:10:47.606Z,101354.59
2023-02-14T00:13:14.430Z,101357.38
2023-02-14T00:15:41.858Z,101357.41
2023-02-14T00:18:09.406Z,101362.03
2023-02-14T00:20:37.366Z,101347.41
2023-02-14T00:23:30.082Z,101348.03
2023-02-14T00:25:57.874Z,101347.03
2023-02-14T00:28:24.643Z,101347.41
2023-02-14T00:30:51.635Z,101350.03
2023-02-14T00:33:18.860Z,101352.00
2023-02-14T00:35:45.697Z,101353.41
2023-02-14T00:38:38.876Z,101347.22
2023-02-14T00:41:07.648Z,101354.22
2023-02-14T00:43:34.438Z,101354.81
2023-02-14T00:46:01.343Z,101346.41
2023-02-14T00:48:28.261Z,101351.84
2023-02-14T00:50:55.116Z,101347.44
2023-02-14T00:53:22.114Z,101345.63
2023-02-14T00:55:50.129Z,101343.81
2023-02-14T00:58:16.871Z,101345.84
2023-02-14T01:00:44.527Z,101345.63
2023-02-14T01:03:11.325Z,101350.63
2023-02-14T01:05:38.318Z,101348.03
2023-02-14T01:10:57.198Z,101348.41
2023-02-14T01:13:26.582Z,101343.81
2023-02-14T01:15:55.447Z,101346.63
2023-02-14T01:18:22.840Z,101352.66
2023-02-14T01:20:50.251Z,101344.84
2023-02-14T01:23:43.339Z,101345.63
2023-02-14T01:26:11.624Z,101340.03
2023-02-14T01:28:39.078Z,101338.00
2023-02-14T01:31:12.056Z,101343.44
2023-02-14T01:33:41.979Z,101340.03
2023-02-14T01:36:19.321Z,101332.22
2023-02-14T01:38:46.449Z,101329.00
2023-02-14T01:41:15.062Z,101325.00
2023-02-14T01:43:51.023Z,101322.00
2023-02-14T01:46:18.168Z,101322.38
2023-02-14T01:48:45.794Z,101315.59
2023-02-14T01:51:14.391Z,101320.00
2023-02-14T01:53:41.510Z,101311.38
2023-02-14T01:56:13.442Z,101311.56
2023-02-14T01:58:43.933Z,101306.38
2023-02-14T02:01:15.892Z,101307.56
2023-02-14T02:03:51.084Z,101302.97
2023-02-14T02:06:23.016Z,101300.97
2023-02-14T02:09:07.892Z,101290.56
2023-02-14T02:11:35.694Z,101300.16
2023-02-14T02:14:04.280Z,101309.38
2023-02-14T02:17:16.112Z,101300.94
2023-02-14T02:20:07.494Z,101291.75
2023-02-14T02:22:52.398Z,101292.53
2023-02-14T02:25:38.170Z,101288.13
2023-02-14T02:28:13.884Z,101292.13
2023-02-14T02:31:22.533Z,101288.53
2023-02-14T02:33:57.222Z,101290.53
2023-02-14T02:36:37.018Z,101290.91
2023-02-14T02:39:09.560Z,101281.28
2023-02-14T02:41:53.400Z,101288.91
2023-02-14T02:44:32.298Z,101279.69
2023-02-14T02:46:59.066Z,101277.50
2023-02-14T02:49:53.413Z,101278.91
2023-02-14T02:52:43.127Z,101279.28
2023-02-14T02:55:22.328Z,101273.06
2023-02-14T02:57:51.628Z,101272.03
2023-02-14T03:00:21.757Z,101273.84
2023-02-14T03:02:52.636Z,101272.25
2023-02-14T03:05:19.773Z,101270.47
2023-02-14T03:07:49.380Z,101275.25
2023-02-14T03:10:23.091Z,101275.88
2023-02-14T03:12:57.112Z,101268.44
2023-02-14T03:16:01.413Z,101266.63
2023-02-14T03:18:57.945Z,101263.00
2023-02-14T03:22:01.306Z,101263.81
2023-02-14T03:24:37.348Z,101265.44
2023-02-14T03:27:37.509Z,101266.44
2023-02-14T03:30:10.288Z,101267.84
2023-02-14T03:32:58.960Z,101268.63
2023-02-14T03:35:31.634Z,101258.63
2023-02-14T03:38:05.925Z,101267.22
2023-02-14T03:40:40.702Z,101256.81
2023-02-14T03:43:12.295Z,101257.63
2023-02-14T03:45:55.801Z,101266.84
2023-02-14T03:48:25.746Z,101252.84
2023-02-14T03:50:55.024Z,101254.25
2023-02-14T03:53:25.781Z,101247.22
2023-02-14T03:56:03.476Z,101248.22
2023-02-14T03:58:39.789Z,101253.03
2023-02-14T04:01:13.315Z,101256.25
2023-02-14T04:03:42.774Z,101260.03
2023-02-14T04:06:09.777Z,101248.44
2023-02-14T04:08:36.688Z,101252.88
2023-02-14T04:11:05.190Z,101253.50
2023-02-14T04:13:32.484Z,101245.91
2023-02-14T04:15:59.505Z,101254.13
2023-02-14T04:18:26.438Z,101246.09
2023-02-14T04:20:53.182Z,101244.50
2023-02-14T04:23:20.000Z,101246.31
2023-02-14T04:25:46.828Z,101241.75
2023-02-14T04:28:14.141Z,101236.31
2023-02-14T04:30:40.958Z,101249.72
2023-02-14T04:33:08.015Z,101236.31
2023-02-14T04:35:35.537Z,101236.13
2023-02-14T04:38:03.540Z,101237.16
2023-02-14T04:40:30.526Z,101228.50
2023-02-14T04:42:57.814Z,101226.34
2023-02-14T04:45:24.662Z,101227.72
2023-02-14T04:47:51.593Z,101223.53
2023-02-14T04:50:18.751Z,101225.34
2023-02-14T04:52:45.636Z,101220.72
2023-02-14T04:55:12.458Z,101222.13
2023-02-14T04:57:39.369Z,101231.34
2023-02-14T05:00:07.193Z,101236.16
2023-02-14T05:02:34.018Z,101227.50
2023-02-14T05:05:01.040Z,101230.13
2023-02-14T05:07:27.869Z,101236.94
2023-02-14T05:09:54.796Z,101239.34
2023-02-14T05:12:21.589Z,101228.72
2023-02-14T05:14:48.399Z,101238.16
2023-02-14T05:17:15.232Z,101242.75
2023-02-14T05:19:42.199Z,101242.13
2023-02-14T05:22:09.354Z,101243.31
2023-02-14T05:24:36.461Z,101237.53
2023-02-14T05:27:03.392Z,101241.75
2023-02-14T05:29:30.283Z,101238.53
2023-02-14T05:31:57.251Z,101242.94
2023-02-14T05:34:24.242Z,101239.75
2023-02-14T05:36:51.116Z,101234.50
2023-02-14T05:39:17.950Z,101229.13
2023-02-14T05:41:44.818Z,101229.75
2023-02-14T05:44:12.055Z,101226.31
2023-02-14T05:46:38.806Z,101228.72
2023-02-14T05:49:05.757Z,101224.72
2023-02-14T05:51:32.631Z,101224.50
2023-02-14T05:53:59.600Z,101221.72
2023-02-14T05:56:26.542Z,101227.53
2023-02-14T05:58:53.390Z,101216.50
2023-02-14T06:01:20.262Z,101224.72
2023-02-14T06:03:47.173Z,101231.50
2023-02-14T06:06:13.937Z,101237.72
2023-02-14T06:08:40.759Z,101240.09
2023-02-14T06:11:07.584Z,101246.09
2023-02-14T06:13:34.432Z,101241.13
2023-02-14T06:16:03.439Z,101244.28
2023-02-14T06:18:30.296Z,101239.91
2023-02-14T06:20:57.500Z,101238.09
2023-02-14T06:23:24.546Z,101230.28
2023-02-14T06:25:51.387Z,101241.91
2023-02-14T06:28:18.352Z,101239.72
2023-02-14T06:30:46.908Z,101241.13
2023-02-14T06:33:13.849Z,101243.72
2023-02-14T06:35:40.736Z,101249.50
2023-02-14T06:38:07.594Z,101251.31
2023-02-14T06:40:34.371Z,101250.72
2023-02-14T06:43:01.190Z,101244.53
2023-02-14T06:45:28.159Z,101253.13
2023-02-14T06:47:55.009Z,101254.53
2023-02-14T06:50:21.791Z,101250.91
2023-02-14T06:52:48.610Z,101252.13
2023-02-14T06:55:15.424Z,101258.94
2023-02-14T06:57:42.354Z,101254.94
2023-02-14T07:00:09.783Z,101258.53
2023-02-14T07:02:36.637Z,101262.91
2023-02-14T07:05:03.755Z,101273.72
2023-02-14T07:07:30.598Z,101268.09
2023-02-14T07:09:57.517Z,101266.69
2023-02-14T07:12:24.465Z,101267.69
2023-02-14T07:14:51.236Z,101262.06
2023-02-14T07:17:18.195Z,101269.88
2023-02-14T07:19:45.033Z,101270.06
2023-02-14T07:22:11.834Z,101270.28
2023-02-14T07:24:38.885Z,101270.47
2023-02-14T07:27:05.936Z,101266.69
2023-02-14T07:29:32.742Z,101274.31
2023-02-14T07:31:59.712Z,101272.50
2023-02-14T07:34:26.619Z,101278.72
2023-02-14T07:36:53.520Z,101277.09
2023-02-14T07:39:20.665Z,101290.13
2023-02-14T07:41:47.477Z,101279.94
2023-02-14T07:44:19.592Z,101284.13
2023-02-14T07:46:46.511Z,101285.31
2023-02-14T07:49:13.300Z,101288.53
2023-02-14T07:51:40.269Z,101283.50
2023-02-14T07:54:07.118Z,101288.72
2023-02-14T07:56:33.984Z,101290.34
2023-02-14T07:59:01.098Z,101289.94
2023-02-14T08:01:27.949Z,101300.34
2023-02-14T08:03:54.830Z,101291.72
2023-02-14T08:06:22.155Z,101295.72
2023-02-14T08:08:49.056Z,101298.13
2023-02-14T08:11:16.003Z,101295.13
2023-02-14T08:13:42.872Z,101306.94
2023-02-14T08:16:09.869Z,101309.75
2023-02-14T08:18:39.142Z,101305.31
2023-02-14T08:21:12.753Z,101303.31
2023-02-14T08:23:40.190Z,101306.91
2023-02-14T08:26:07.871Z,101307.13
2023-02-14T08:28:35.075Z,101311.13
2023-02-14T08:31:04.697Z,101310.94
2023-02-14T08:33:31.651Z,101303.91
2023-02-14T08:35:58.505Z,101312.75
2023-02-14T08:38:25.334Z,101319.94
2023-02-14T08:40:52.493Z,101316.53
2023-02-14T08:43:19.506Z,101316.31
2023-02-14T08:45:46.399Z,101320.56
2023-02-14T08:48:13.458Z,101325.94
2023-02-14T08:50:40.977Z,101322.56
2023-02-14T08:53:12.532Z,101325.75
2023-02-14T08:55:40.260Z,101320.97
2023-02-14T08:58:07.901Z,101320.97
2023-02-14T09:00:35.270Z,101327.59
2023-02-14T09:03:02.321Z,101327.19
2023-02-14T09:05:29.293Z,101326.34
2023-02-14T09:07:56.219Z,101325.56
2023-02-14T09:10:24.383Z,101331.97
2023-02-14T09:12:51.740Z,101330.75
2023-02-14T09:15:18.687Z,101340.19
2023-02-14T09:17:46.372Z,101346.59
2023-02-14T09:20:15.471Z,101347.19
2023-02-14T09:22:42.402Z,101349.78
2023-02-14T09:25:09.359Z,101344.97
2023-02-14T09:27:36.563Z,101347.00
2023-02-14T09:30:04.175Z,101351.41
2023-02-14T09:32:31.091Z,101345.59
2023-02-14T09:34:57.927Z,101358.41
2023-02-14T09:37:24.793Z,101355.22
2023-02-14T09:39:51.541Z,101343.00
2023-02-14T09:42:27.290Z,101341.38
2023-02-14T09:45:07.373Z,101341.97
2023-02-14T09:47:55.500Z,101347.56
2023-02-14T09:50:29.721Z,101348.75
2023-02-14T09:53:00.899Z,101350.97
2023-02-14T09:55:40.436Z,101346.38
2023-02-14T09:58:19.231Z,101345.75
2023-02-14T10:00:52.360Z,101344.97
2023-02-14T10:03:31.209Z,101343.75
2023-02-14T10:06:36.490Z,101348.34
2023-02-14T10:09:16.250Z,101344.94
2023-02-14T10:11:46.448Z,101345.16
2023-02-14T10:14:18.035Z,101357.75
2023-02-14T10:16:59.869Z,101351.16
2023-02-14T10:19:28.559Z,101343.75
2023-02-14T10:21:59.464Z,101342.91
2023-02-14T10:24:31.964Z,101335.69
2023-02-14T10:27:24.725Z,101343.69
2023-02-14T10:29:51.571Z,101344.91
2023-02-14T10:32:38.124Z,101340.09
2023-02-14T10:35:19.516Z,101340.09
2023-02-14T10:37:52.481Z,101341.88
2023-02-14T10:40:34.569Z,101337.66
2023-02-14T10:43:23.652Z,101329.03
2023-02-14T10:46:12.418Z,101331.41
2023-02-14T10:48:48.570Z,101332.81
2023-02-14T10:51:18.539Z,101325.59
2023-02-14T10:54:13.969Z,101322.38
2023-02-14T10:56:46.763Z,101309.72
2023-02-14T10:59:22.873Z,101310.31
2023-02-14T11:01:52.958Z,101311.69
2023-02-14T11:04:23.861Z,101308.66
2023-02-14T11:06:51.161Z,101308.88
2023-02-14T11:09:18.996Z,101306.66
2023-02-14T11:11:55.948Z,101294.41
2023-02-14T11:14:34.011Z,101295.38
2023-02-14T11:17:20.260Z,101292.72
2023-02-14T11:20:01.556Z,101289.34
2023-02-14T11:22:33.442Z,101290.13
2023-02-14T11:25:18.025Z,101294.94
2023-02-14T11:27:47.124Z,101292.13
2023-02-14T11:30:26.195Z,101284.06
2023-02-14T11:32:53.969Z,101279.66
2023-02-14T11:35:22.405Z,101279.47
2023-02-14T11:37:51.657Z,101292.88
2023-02-14T11:40:37.088Z,101285.97
2023-02-14T11:43:14.908Z,101293.41
2023-02-14T11:45:45.534Z,101281.97
2023-02-14T11:48:19.666Z,101280.59
2023-02-14T11:51:08.162Z,101270.72
2023-02-14T11:53:48.860Z,101273.13
2023-02-14T11:56:18.497Z,101266.91
2023-02-14T11:58:45.323Z,101270.91
2023-02-14T12:01:22.140Z,101272.28
2023-02-14T12:03:49.551Z,101266.84
2023-02-14T12:06:31.957Z,101259.06
2023-02-14T12:09:34.442Z,101255.25
2023-02-14T12:12:04.643Z,101256.47
2023-02-14T12:14:34.217Z,101250.03
2023-02-14T12:17:10.032Z,101254.28
2023-02-14T12:20:02.765Z,101246.81
2023-02-14T12:22:39.825Z,101245.59
2023-02-14T12:25:16.665Z,101240.75
2023-02-14T12:27:53.977Z,101246.56
2023-02-14T12:30:23.198Z,101236.91
2023-02-14T12:32:55.189Z,101233.31
2023-02-14T12:35:59.482Z,101236.34
2023-02-14T12:38:41.235Z,101223.84
2023-02-14T12:41:35.249Z,101222.44
2023-02-14T12:44:06.212Z,101230.53
2023-02-14T12:46:45.179Z,101231.69
2023-02-14T12:49:15.061Z,101227.50
2023-02-14T12:52:09.484Z,101238.09
2023-02-14T12:54:47.719Z,101226.28
2023-02-14T12:57:51.758Z,101224.47
2023-02-14T13:00:23.259Z,101229.81
2023-02-14T13:02:53.176Z,101220.22
2023-02-14T13:05:28.418Z,101225.19
2023-02-14T13:08:07.339Z,101229.41
2023-02-14T13:10:40.162Z,101223.38
2023-02-14T13:13:25.643Z,101227.94
2023-02-14T13:16:03.942Z,101225.16
2023-02-14T13:18:31.029Z,101227.75
2023-02-14T13:21:02.181Z,101220.84
2023-02-14T13:23:42.125Z,101220.84
2023-02-14T13:26:20.833Z,101221.69
2023-02-14T13:29:04.280Z,101209.84
2023-02-14T13:31:32.162Z,101212.22
2023-02-14T13:34:07.331Z,101214.66
2023-02-14T13:36:35.413Z,101214.84
2023-02-14T13:39:03.864Z,101212.81
2023-02-14T13:41:31.825Z,101205.19
2023-02-14T13:44:00.722Z,101204.19
2023-02-14T13:46:33.705Z,101208.63
2023-02-14T13:49:15.730Z,101209.78
2023-02-14T13:51:48.433Z,101213.84
2023-02-14T13:54:40.512Z,101206.94
2023-02-14T13:57:36.002Z,101211.81
2023-02-14T14:00:18.053Z,101204.63
2023-02-14T14:02:50.516Z,101204.63
2023-02-14T14:05:32.463Z,101214.66
2023-02-14T14:08:21.183Z,101206.81
2023-02-14T14:11:00.115Z,101211.25
2023-02-14T14:13:41.950Z,101190.78
2023-02-14T14:16:24.248Z,101192.81
2023-02-14T14:18:52.274Z,101194.38
2023-02-14T14:21:31.486Z,101197.00
2023-02-14T14:24:17.270Z,101196.56
2023-02-14T14:26:48.371Z,101199.28
2023-02-14T14:29:41.041Z,101190.44
2023-02-14T14:32:25.528Z,101187.22
2023-02-14T14:35:17.609Z,101185.34
2023-02-14T14:37:54.379Z,101179.63
2023-02-14T14:40:27.348Z,101174.63
2023-02-14T14:42:57.394Z,101172.28
2023-02-14T14:45:29.601Z,101169.25
2023-02-14T14:48:08.525Z,101174.59
2023-02-14T14:50:36.539Z,101166.94
2023-02-14T14:53:14.286Z,101169.19
2023-02-14T14:55:46.716Z,101168.22
2023-02-14T14:58:31.674Z,101156.06
2023-02-14T15:00:59.079Z,101159.88
2023-02-14T15:03:28.390Z,101157.28
2023-02-14T15:06:08.835Z,101169.78
2023-02-14T15:08:36.134Z,101160.75
2023-02-14T15:11:06.413Z,101163.22
2023-02-14T15:13:47.500Z,101162.06
2023-02-14T15:16:18.564Z,101163.22
2023-02-14T15:18:45.902Z,101155.75
2023-02-14T15:21:14.195Z,101161.75
2023-02-14T15:23:42.837Z,101158.38
2023-02-14T15:26:18.326Z,101157.03
2023-02-14T15:28:53.595Z,101161.47
2023-02-14T15:31:20.814Z,101158.44
2023-02-14T15:33:47.895Z,101161.22
2023-02-14T15:36:21.424Z,101162.53
2023-02-14T15:38:48.630Z,101172.97
2023-02-14T15:41:17.194Z,101172.06
2023-02-14T15:43:44.323Z,101170.53
2023-02-14T15:46:19.529Z,101168.72
2023-02-14T15:48:47.528Z,101172.34
2023-02-14T15:51:21.910Z,101174.38
2023-02-14T15:53:58.705Z,101180.59
2023-02-14T15:56:31.744Z,101172.19
2023-02-14T15:59:07.907Z,101174.38
2023-02-14T16:01:36.941Z,101181.97
2023-02-14T16:04:06.962Z,101183.19
2023-02-14T16:06:40.302Z,101187.25
2023-02-14T16:09:27.403Z,101175.84
2023-02-14T16:11:54.804Z,101182.84
2023-02-14T16:14:30.613Z,101191.75
2023-02-14T16:17:00.551Z,101191.75
2023-02-14T16:19:39.560Z,101191.38
2023-02-14T16:22:09.634Z,101191.38
2023-02-14T16:24:37.393Z,101186.63
2023-02-14T16:27:05.597Z,101200.66
2023-02-14T16:29:34.665Z,101192.47
2023-02-14T16:32:17.374Z,101200.88
2023-02-14T16:34:45.659Z,101205.94
2023-02-14T16:37:30.352Z,101206.56
2023-02-14T16:39:59.886Z,101211.00
2023-02-14T16:42:26.958Z,101201.19
2023-02-14T16:44:55.899Z,101204.16
2023-02-14T16:47:23.286Z,101204.34
2023-02-14T16:49:50.778Z,101206.38
2023-02-14T16:52:23.536Z,101202.75
2023-02-14T16:54:53.040Z,101214.59
2023-02-14T16:57:28.003Z,101207.38
2023-02-14T16:59:57.061Z,101207.19
2023-02-14T17:02:25.413Z,101206.78
2023-02-14T17:04:53.094Z,101209.19
2023-02-14T17:07:21.255Z,101211.41
2023-02-14T17:09:54.244Z,101217.66
2023-02-14T17:12:29.851Z,101217.81
2023-02-14T17:15:02.114Z,101222.25
2023-02-14T17:17:30.638Z,101219.84
2023-02-14T17:19:59.702Z,101223.03
2023-02-14T17:22:27.480Z,101225.25
2023-02-14T17:24:56.956Z,101219.66
2023-02-14T17:27:24.609Z,101222.88
2023-02-14T17:29:52.064Z,101223.47
2023-02-14T17:32:19.494Z,101220.91
2023-02-14T17:34:47.283Z,101231.91
2023-02-14T17:37:14.463Z,101227.72
2023-02-14T17:39:41.798Z,101221.34
2023-02-14T17:42:11.728Z,101223.16
2023-02-14T17:44:41.295Z,101224.09
2023-02-14T17:47:09.706Z,101213.91
2023-02-14T17:49:38.459Z,101222.94
2023-02-14T17:52:05.958Z,101226.75
2023-02-14T17:54:37.478Z,101226.31
2023-02-14T17:57:05.774Z,101220.56
2023-02-14T17:59:35.153Z,101216.75
2023-02-14T18:02:02.819Z,101215.53
2023-02-14T18:04:31.582Z,101209.50
2023-02-14T18:07:01.598Z,101211.13
2023-02-14T18:09:30.795Z,101211.94
2023-02-14T18:11:58.501Z,101211.53
2023-02-14T18:14:27.724Z,101208.53
2023-02-14T18:16:56.457Z,101210.91
2023-02-14T18:19:23.938Z,101212.50
2023-02-14T18:21:51.373Z,101212.31
2023-02-14T18:24:18.958Z,101209.91
2023-02-14T18:26:47.420Z,101209.09
2023-02-14T18:29:15.116Z,101207.56
2023-02-14T18:31:45.277Z,101209.16
2023-02-14T18:34:12.683Z,101204.94
2023-02-14T18:36:42.154Z,101201.16
2023-02-14T18:39:10.163Z,101196.34
2023-02-14T18:41:38.177Z,101194.34
2023-02-14T18:44:05.963Z,101186.31
2023-02-14T18:46:35.036Z,101193.13
2023-02-14T18:49:05.266Z,101192.31
2023-02-14T18:51:34.983Z,101185.13
2023-02-14T18:54:04.037Z,101190.72
2023-02-14T18:56:35.845Z,101184.13
2023-02-14T18:59:09.269Z,101181.50
2023-02-14T19:01:39.934Z,101183.94
2023-02-14T19:04:10.907Z,101185.72
2023-02-14T19:06:40.278Z,101192.56
2023-02-14T19:09:12.902Z,101186.34
2023-02-14T19:11:41.443Z,101185.75
2023-02-14T19:14:14.856Z,101186.34
2023-02-14T19:16:48.498Z,101186.75
2023-02-14T19:19:17.125Z,101192.97
2023-02-14T19:21:44.648Z,101190.19
2023-02-14T19:24:12.367Z,101192.41
2023-02-14T19:26:40.910Z,101186.22
2023-02-14T19:29:11.826Z,101185.38
2023-02-14T19:31:43.295Z,101177.75
2023-02-14T19:34:29.325Z,101181.56
2023-02-14T19:36:59.111Z,101177.38
2023-02-14T19:39:31.375Z,101175.19
2023-02-14T19:42:00.063Z,101181.22
2023-02-14T19:44:28.164Z,101178.81
2023-02-14T19:46:55.950Z,101170.22
2023-02-14T19:49:23.993Z,101170.22
2023-02-14T19:51:52.119Z,101170.03
2023-02-14T19:54:21.080Z,101169.97
2023-02-14T19:56:49.598Z,101168.00
2023-02-14T19:59:17.850Z,101168.81
2023-02-14T20:01:49.290Z,101175.44
2023-02-14T20:04:23.020Z,101165.41
2023-02-14T20:06:52.740Z,101168.63
2023-02-14T20:09:21.445Z,101171.63
2023-02-14T20:11:52.785Z,101169.81
2023-02-14T20:14:31.479Z,101177.00
2023-02-14T20:17:03.272Z,101179.41
2023-02-14T20:19:35.259Z,101174.63
2023-02-14T20:22:03.292Z,101174.41
2023-02-14T20:24:33.026Z,101180.84
2023-02-14T20:27:01.292Z,101176.59
2023-02-14T20:29:30.049Z,101170.59
2023-02-14T20:31:59.447Z,101173.41
2023-02-14T20:34:28.506Z,101168.38
2023-02-14T20:36:57.155Z,101168.38
2023-02-14T20:39:30.609Z,101161.38
2023-02-14T20:41:59.424Z,101156.78
2023-02-14T20:44:27.862Z,101162.00
2023-02-14T20:46:57.228Z,101148.75
2023-02-14T20:49:26.877Z,101156.19
2023-02-14T20:51:56.545Z,101153.56
2023-02-14T20:54:26.687Z,101162.00
2023-02-14T20:56:55.450Z,101158.59
2023-02-14T20:59:23.264Z,101158.38
2023-02-14T21:01:51.083Z,101165.22
2023-02-14T21:04:24.923Z,101160.81
2023-02-14T21:06:53.791Z,101164.00
2023-02-14T21:09:23.088Z,101155.78
2023-02-14T21:11:52.584Z,101150.00
2023-02-14T21:14:21.853Z,101154.19
2023-02-14T21:16:50.729Z,101159.22
2023-02-14T21:19:19.434Z,101152.78
2023-02-14T21:21:52.702Z,101156.41
2023-02-14T21:24:20.505Z,101149.59
2023-02-14T21:26:48.505Z,101154.97
2023-02-14T21:29:16.405Z,101142.38
2023-02-14T21:31:45.731Z,101145.78
2023-02-14T21:34:15.897Z,101140.56
2023-02-14T21:36:43.860Z,101146.22
2023-02-14T21:39:12.951Z,101140.78
2023-02-14T21:41:40.875Z,101146.22
2023-02-14T21:44:11.917Z,101143.22
2023-02-14T21:46:39.878Z,101139.22
2023-02-14T21:49:09.521Z,101138.41
2023-02-14T21:51:40.241Z,101136.00
2023-02-14T21:54:09.614Z,101133.81
2023-02-14T21:56:40.541Z,101137.63
2023-02-14T21:59:08.314Z,101136.63
2023-02-14T22:01:37.419Z,101139.88
2023-02-14T22:04:09.880Z,101135.03
2023-02-14T22:06:38.948Z,101130.03
2023-02-14T22:09:07.126Z,101124.03
2023-02-14T22:11:34.840Z,101122.22
2023-02-14T22:14:02.134Z,101124.63
2023-02-14T22:16:29.226Z,101117.84
2023-02-14T22:18:56.118Z,101123.28
2023-02-14T22:21:25.186Z,101120.66
2023-02-14T22:23:52.343Z,101116.69
2023-02-14T22:26:31.424Z,101119.69
2023-02-14T22:29:00.337Z,101113.31
2023-02-14T22:31:32.895Z,101115.69
2023-02-14T22:33:59.949Z,101116.47
2023-02-14T22:36:26.890Z,101119.09
2023-02-14T22:38:53.826Z,101114.66
2023-02-14T22:41:23.795Z,101117.09
2023-02-14T22:43:51.972Z,101106.69
2023-02-14T22:46:21.458Z,101117.66
2023-02-14T22:48:50.840Z,101114.47
2023-02-14T22:51:36.908Z,101113.47
2023-02-14T22:54:12.754Z,101110.66
2023-02-14T22:56:43.422Z,101127.50
2023-02-14T22:59:23.977Z,101133.09
2023-02-14T23:01:52.825Z,101122.28
2023-02-14T23:04:21.684Z,101124.50
2023-02-14T23:06:49.146Z,101124.91
2023-02-14T23:09:16.599Z,101129.09
2023-02-14T23:11:45.840Z,101127.72
2023-02-14T23:14:14.410Z,101129.31
2023-02-14T23:16:41.744Z,101127.31
2023-02-14T23:19:16.226Z,101123.31
2023-02-14T23:21:43.033Z,101115.72
2023-02-14T23:24:10.084Z,101115.31
2023-02-14T23:26:37.434Z,101104.94
2023-02-14T23:29:04.606Z,101111.53
2023-02-14T23:31:31.525Z,101108.31
2023-02-14T23:33:58.382Z,101107.53
2023-02-14T23:36:25.262Z,101114.16
2023-02-14T23:38:52.145Z,101109.75
2023-02-14T23:41:18.997Z,101107.16
2023-02-14T23:43:49.052Z,101101.72
2023-02-14T23:46:15.879Z,101096.94
2023-02-14T23:48:42.870Z,101099.53
2023-02-14T23:51:09.708Z,101090.94
2023-02-14T23:53:36.550Z,101088.34
2023-02-14T23:56:04.077Z,101086.56
2023-02-14T23:58:30.938Z,101087.94
